createdAt,value
2023-12-24T00:00:11.173Z,9.418328
2023-12-24T00:01:11.191Z,9.418428
2023-12-24T00:02:11.187Z,9.418378
2023-12-24T00:03:11.185Z,9.418363
2023-12-24T00:04:11.163Z,9.418390
2023-12-24T00:05:11.281Z,9.418483
2023-12-24T00:06:11.372Z,9.418187
2023-12-24T00:07:11.134Z,9.418274
2023-12-24T00:08:11.143Z,9.418123
2023-12-24T00:09:11.135Z,9.418242
2023-12-24T00:10:11.113Z,9.418296
2023-12-24T00:11:11.131Z,9.418257
2023-12-24T00:12:11.096Z,9.418386
2023-12-24T00:13:11.097Z,9.418202
2023-12-24T00:14:11.136Z,9.418566
2023-12-24T00:15:11.692Z,9.418143
2023-12-24T00:16:11.068Z,9.418109
2023-12-24T00:17:11.096Z,9.418224
2023-12-24T00:18:11.143Z,9.418245
2023-12-24T00:19:11.071Z,9.418303
2023-12-24T00:20:11.216Z,9.418369
2023-12-24T00:21:11.027Z,9.418262
2023-12-24T00:22:11.026Z,9.418221
2023-12-24T00:23:11.064Z,9.418292
2023-12-24T00:24:12.715Z,9.418263
2023-12-24T00:25:12.086Z,9.418013
2023-12-24T00:26:11.041Z,9.418169
2023-12-24T00:27:10.996Z,9.418139
2023-12-24T00:28:10.990Z,9.418138
2023-12-24T00:29:11.013Z,9.418118
2023-12-24T00:30:11.070Z,9.418211
2023-12-24T00:31:12.074Z,9.418110
2023-12-24T00:32:11.973Z,9.418311
2023-12-24T00:33:11.007Z,9.418241
2023-12-24T00:34:10.994Z,9.418242
2023-12-24T00:35:10.953Z,9.418272
2023-12-24T00:36:10.945Z,9.418178
2023-12-24T00:37:10.947Z,9.418236
2023-12-24T00:38:10.972Z,9.417997
2023-12-24T00:39:10.923Z,9.418225
2023-12-24T00:40:10.928Z,9.418509
2023-12-24T00:41:10.897Z,9.418200
2023-12-24T00:42:11.568Z,9.418088
2023-12-24T00:43:10.877Z,9.418425
2023-12-24T00:44:10.907Z,9.418375
2023-12-24T00:45:10.871Z,9.418536
2023-12-24T00:46:10.868Z,9.418221
2023-12-24T00:47:10.941Z,9.418345
2023-12-24T00:48:11.050Z,9.418222
2023-12-24T00:49:10.952Z,9.418065
2023-12-24T00:50:10.878Z,9.418025
2023-12-24T00:51:10.841Z,9.418346
2023-12-24T00:52:10.819Z,9.418305
2023-12-24T00:53:11.327Z,9.418358
2023-12-24T00:54:10.801Z,9.418359
2023-12-24T00:55:10.815Z,9.418400
2023-12-24T00:56:10.857Z,9.418775
2023-12-24T00:57:10.785Z,9.418879
2023-12-24T00:58:10.773Z,9.418802
2023-12-24T00:59:10.780Z,9.418865
2023-12-24T01:00:10.788Z,9.418947
2023-12-24T01:01:10.822Z,9.418251
2023-12-24T01:02:10.824Z,9.417870
2023-12-24T01:03:10.740Z,9.418896
2023-12-24T01:04:10.775Z,9.418762
2023-12-24T01:05:10.950Z,9.418234
2023-12-24T01:06:10.935Z,9.418194
2023-12-24T01:07:10.731Z,9.418195
2023-12-24T01:08:10.738Z,9.418306
2023-12-24T01:09:10.711Z,9.418567
2023-12-24T01:10:10.723Z,9.418060
2023-12-24T01:11:10.764Z,9.418147
2023-12-24T01:12:10.681Z,9.418324
2023-12-24T01:13:10.674Z,9.418213
2023-12-24T01:14:10.766Z,9.418436
2023-12-24T01:15:10.670Z,9.418622
2023-12-24T01:16:11.703Z,9.418684
2023-12-24T01:17:10.676Z,9.418676
2023-12-24T01:18:10.777Z,9.418467
2023-12-24T01:19:10.678Z,9.418201
2023-12-24T01:20:10.673Z,9.418200
2023-12-24T01:21:10.632Z,9.418325
2023-12-24T01:22:10.722Z,9.418340
2023-12-24T01:23:10.648Z,9.418467
2023-12-24T01:24:10.630Z,9.418328
2023-12-24T01:25:10.612Z,9.418418
2023-12-24T01:26:10.698Z,9.418422
2023-12-24T01:27:10.595Z,9.418324
2023-12-24T01:28:10.585Z,9.418286
2023-12-24T01:29:10.606Z,9.418281
2023-12-24T01:30:10.655Z,9.418365
2023-12-24T01:31:10.576Z,9.418393
2023-12-24T01:32:10.555Z,9.418245
2023-12-24T01:33:10.629Z,9.418234
2023-12-24T01:34:10.571Z,9.418358
2023-12-24T01:35:10.585Z,9.418423
2023-12-24T01:36:10.522Z,9.418343
2023-12-24T01:37:10.521Z,9.418322
2023-12-24T01:38:11.561Z,9.418260
2023-12-24T01:39:10.505Z,9.418262
2023-12-24T01:40:10.506Z,9.418277
2023-12-24T01:41:10.517Z,9.418108
2023-12-24T01:42:10.511Z,9.418186
2023-12-24T01:43:10.560Z,9.418312
2023-12-24T01:44:10.493Z,9.418261
2023-12-24T01:45:10.494Z,9.418183
2023-12-24T01:46:10.456Z,9.418039
2023-12-24T01:47:10.500Z,9.418227
2023-12-24T01:48:10.464Z,9.418356
2023-12-24T01:49:10.469Z,9.418432
2023-12-24T01:50:10.480Z,9.418405
2023-12-24T01:51:10.430Z,9.418427
2023-12-24T01:52:10.432Z,9.418245
2023-12-24T01:53:10.446Z,9.418214
2023-12-24T01:55:11.473Z,9.418285
2023-12-24T01:56:10.426Z,9.418375
2023-12-24T01:57:10.401Z,9.418360
2023-12-24T01:58:10.386Z,9.418327
2023-12-24T01:59:10.383Z,9.418285
2023-12-24T02:00:10.366Z,9.418300
2023-12-24T02:01:10.456Z,9.418243
2023-12-24T02:02:10.448Z,9.418487
2023-12-24T02:03:10.652Z,9.418462
2023-12-24T02:04:11.035Z,9.418494
2023-12-24T02:05:10.398Z,9.418393
2023-12-24T02:06:10.521Z,9.418346
2023-12-24T02:07:10.334Z,9.418309
2023-12-24T02:08:10.445Z,9.418305
2023-12-24T02:09:10.322Z,9.418366
2023-12-24T02:10:10.314Z,9.418406
2023-12-24T02:11:10.322Z,9.418434
2023-12-24T02:12:10.298Z,9.418354
2023-12-24T02:13:10.301Z,9.418303
2023-12-24T02:14:10.314Z,9.418287
2023-12-24T02:15:10.276Z,9.418295
2023-12-24T02:16:10.274Z,9.418300
2023-12-24T02:17:10.266Z,9.418235
2023-12-24T02:18:10.380Z,9.418259
2023-12-24T02:19:10.411Z,9.418247
2023-12-24T02:20:10.318Z,9.418327
2023-12-24T02:21:10.233Z,9.418313
2023-12-24T02:22:10.262Z,9.418256
2023-12-24T02:23:10.358Z,9.418268
2023-12-24T02:24:10.375Z,9.418267
2023-12-24T02:25:10.208Z,9.418326
2023-12-24T02:26:10.217Z,9.418273
2023-12-24T02:27:10.186Z,9.418303
2023-12-24T02:28:10.200Z,9.418429
2023-12-24T02:29:10.208Z,9.418395
2023-12-24T02:30:10.252Z,9.418399
2023-12-24T02:31:10.183Z,9.418314
2023-12-24T02:32:10.219Z,9.418330
2023-12-24T02:33:10.279Z,9.418329
2023-12-24T02:34:10.200Z,9.418341
2023-12-24T02:35:10.178Z,9.418309
2023-12-24T02:36:10.160Z,9.418327
2023-12-24T02:37:10.121Z,9.418356
2023-12-24T02:38:10.174Z,9.418375
2023-12-24T02:39:10.121Z,9.418408
2023-12-24T02:40:10.117Z,9.418282
2023-12-24T02:41:10.148Z,9.418224
2023-12-24T02:42:10.112Z,9.418266
2023-12-24T02:43:10.080Z,9.418262
2023-12-24T02:44:10.122Z,9.418311
2023-12-24T02:45:10.071Z,9.418340
2023-12-24T02:46:10.068Z,9.418347
2023-12-24T02:47:10.099Z,9.418284
2023-12-24T02:48:10.118Z,9.418250
2023-12-24T02:49:10.140Z,9.418260
2023-12-24T02:50:10.096Z,9.418241
2023-12-24T02:51:10.033Z,9.418268
2023-12-24T02:52:10.023Z,9.418349
2023-12-24T02:53:10.093Z,9.418408
2023-12-24T02:54:10.013Z,9.418375
2023-12-24T02:55:10.034Z,9.418351
2023-12-24T02:56:10.008Z,9.418284
2023-12-24T02:57:09.996Z,9.418328
2023-12-24T02:58:09.980Z,9.418320
2023-12-24T02:59:09.987Z,9.418356
2023-12-24T03:00:10.014Z,9.418331
2023-12-24T03:01:09.966Z,9.418389
2023-12-24T03:02:09.987Z,9.418289
2023-12-24T03:03:09.938Z,9.418321
2023-12-24T03:04:09.936Z,9.418347
2023-12-24T03:05:10.034Z,9.418242
2023-12-24T03:06:10.113Z,9.418331
2023-12-24T03:07:09.931Z,9.418225
2023-12-24T03:08:09.945Z,9.418248
2023-12-24T03:09:09.898Z,9.418215
2023-12-24T03:10:09.913Z,9.418185
2023-12-24T03:11:09.957Z,9.418129
2023-12-24T03:12:09.878Z,9.418159
2023-12-24T03:13:09.894Z,9.418207
2023-12-24T03:14:09.953Z,9.418299
2023-12-24T03:15:09.877Z,9.418328
2023-12-24T03:16:09.868Z,9.418336
2023-12-24T03:17:09.873Z,9.418328
2023-12-24T03:18:09.994Z,9.418273
2023-12-24T03:19:09.948Z,9.418297
2023-12-24T03:20:09.927Z,9.418335
2023-12-24T03:21:09.859Z,9.418297
2023-12-24T03:22:09.816Z,9.418273
2023-12-24T03:23:09.867Z,9.418268
2023-12-24T03:24:09.796Z,9.418233
2023-12-24T03:25:09.811Z,9.418378
2023-12-24T03:26:09.812Z,9.418451
2023-12-24T03:27:09.788Z,9.418387
2023-12-24T03:28:09.772Z,9.418441
2023-12-24T03:29:09.804Z,9.418478
2023-12-24T03:30:09.773Z,9.418306
2023-12-24T03:31:09.748Z,9.418194
2023-12-24T03:32:09.780Z,9.418168
2023-12-24T03:33:09.788Z,9.418286
2023-12-24T03:34:09.784Z,9.418135
2023-12-24T03:35:09.751Z,9.417892
2023-12-24T03:36:09.729Z,9.418141
2023-12-24T03:37:09.731Z,9.418208
2023-12-24T03:38:09.717Z,9.418103
2023-12-24T03:39:09.692Z,9.417984
2023-12-24T03:40:09.683Z,9.418097
2023-12-24T03:41:09.755Z,9.418164
2023-12-24T03:42:09.678Z,9.418309
2023-12-24T03:43:09.677Z,9.418382
2023-12-24T03:44:09.687Z,9.418413
2023-12-24T03:45:09.656Z,9.418123
2023-12-24T03:46:09.639Z,9.418568
2023-12-24T03:47:09.683Z,9.418581
2023-12-24T03:48:09.738Z,9.418505
2023-12-24T03:49:09.685Z,9.418317
2023-12-24T03:50:09.663Z,9.418209
2023-12-24T03:51:09.599Z,9.418180
2023-12-24T03:52:09.656Z,9.418352
2023-12-24T03:53:09.673Z,9.418524
2023-12-24T03:54:09.581Z,9.418652
2023-12-24T03:55:09.582Z,9.418528
2023-12-24T03:56:09.591Z,9.418262
2023-12-24T03:57:09.688Z,9.418347
2023-12-24T03:58:09.590Z,9.418261
2023-12-24T03:59:09.632Z,9.418242
2023-12-24T04:00:09.567Z,9.418201
2023-12-24T04:01:09.653Z,9.418129
2023-12-24T04:02:09.566Z,9.418226
2023-12-24T04:03:09.579Z,9.418173
2023-12-24T04:04:09.521Z,9.418326
2023-12-24T04:05:09.537Z,9.418340
2023-12-24T04:06:09.571Z,9.418238
2023-12-24T04:07:09.494Z,9.418293
2023-12-24T04:08:09.571Z,9.418278
2023-12-24T04:09:09.469Z,9.418237
2023-12-24T04:10:09.464Z,9.418165
2023-12-24T04:11:09.491Z,9.418253
2023-12-24T04:12:09.456Z,9.418311
2023-12-24T04:13:09.506Z,9.418260
2023-12-24T04:14:09.522Z,9.418329
2023-12-24T04:15:09.444Z,9.418320
2023-12-24T04:16:09.434Z,9.418317
2023-12-24T04:17:09.430Z,9.418337
2023-12-24T04:18:09.564Z,9.418270
2023-12-24T04:19:09.481Z,9.418289
2023-12-24T04:20:09.406Z,9.418282
2023-12-24T04:21:09.405Z,9.418295
2023-12-24T04:22:09.388Z,9.418280
2023-12-24T04:23:09.464Z,9.418209
2023-12-24T04:24:09.380Z,9.418223
2023-12-24T04:25:09.373Z,9.418311
2023-12-24T04:26:09.383Z,9.418303
2023-12-24T04:27:09.358Z,9.418243
2023-12-24T04:28:09.350Z,9.418380
2023-12-24T04:29:09.393Z,9.418386
2023-12-24T04:30:09.363Z,9.418271
2023-12-24T04:31:09.339Z,9.418386
2023-12-24T04:32:09.354Z,9.418278
2023-12-24T04:33:09.449Z,9.418208
2023-12-24T04:34:09.546Z,9.418283
2023-12-24T04:35:09.363Z,9.418274
2023-12-24T04:36:09.320Z,9.418441
2023-12-24T04:37:09.286Z,9.418338
2023-12-24T04:38:09.297Z,9.418343
2023-12-24T04:39:09.306Z,9.418314
2023-12-24T04:40:09.271Z,9.418387
2023-12-24T04:41:09.291Z,9.418353
2023-12-24T04:42:09.254Z,9.418327
2023-12-24T04:43:09.248Z,9.418311
2023-12-24T04:44:09.313Z,9.418373
2023-12-24T04:45:09.236Z,9.418262
2023-12-24T04:46:09.224Z,9.418321
2023-12-24T04:47:09.274Z,9.418351
2023-12-24T04:48:09.235Z,9.418309
2023-12-24T04:49:09.246Z,9.418374
2023-12-24T04:50:09.304Z,9.418299
2023-12-24T04:51:09.222Z,9.418323
2023-12-24T04:52:09.193Z,9.418297
2023-12-24T04:53:09.222Z,9.418264
2023-12-24T04:54:09.207Z,9.418226
2023-12-24T04:55:09.172Z,9.418345
2023-12-24T04:56:09.187Z,9.418325
2023-12-24T04:57:09.163Z,9.418438
2023-12-24T04:58:09.157Z,9.418427
2023-12-24T04:59:09.167Z,9.418543
2023-12-24T05:00:09.171Z,9.418414
2023-12-24T05:01:09.139Z,9.418379
2023-12-24T05:02:09.140Z,9.418489
2023-12-24T05:03:09.124Z,9.418446
2023-12-24T05:04:09.207Z,9.418331
2023-12-24T05:05:09.205Z,9.418109
2023-12-24T05:06:09.123Z,9.418242
2023-12-24T05:07:09.120Z,9.418278
2023-12-24T05:08:09.126Z,9.418494
2023-12-24T05:09:09.103Z,9.418198
2023-12-24T05:10:09.064Z,9.418285
2023-12-24T05:11:09.083Z,9.418215
2023-12-24T05:12:09.076Z,9.418325
2023-12-24T05:13:09.064Z,9.418288
2023-12-24T05:14:09.095Z,9.418260
2023-12-24T05:15:09.028Z,9.418225
2023-12-24T05:16:09.013Z,9.418207
2023-12-24T05:17:09.057Z,9.418324
2023-12-24T05:18:09.146Z,9.418267
2023-12-24T05:19:09.047Z,9.418318
2023-12-24T05:20:09.049Z,9.418343
2023-12-24T05:21:08.986Z,9.418330
2023-12-24T05:22:08.982Z,9.418355
2023-12-24T05:23:09.014Z,9.418320
2023-12-24T05:24:08.961Z,9.418242
2023-12-24T05:25:08.974Z,9.418253
2023-12-24T05:26:08.984Z,9.418307
2023-12-24T05:27:08.948Z,9.418344
2023-12-24T05:28:08.966Z,9.418313
2023-12-24T05:29:08.971Z,9.418404
2023-12-24T05:30:08.946Z,9.418327
2023-12-24T05:31:08.901Z,9.418238
2023-12-24T05:32:09.011Z,9.418182
2023-12-24T05:33:09.087Z,9.418201
2023-12-24T05:34:08.945Z,9.418148
2023-12-24T05:35:08.904Z,9.418241
2023-12-24T05:36:08.879Z,9.418232
2023-12-24T05:37:08.871Z,9.418218
2023-12-24T05:38:08.888Z,9.418278
2023-12-24T05:39:08.874Z,9.418287
2023-12-24T05:40:08.855Z,9.418462
2023-12-24T05:41:08.869Z,9.418473
2023-12-24T05:42:08.841Z,9.418406
2023-12-24T05:43:08.829Z,9.418335
2023-12-24T05:44:08.866Z,9.418292
2023-12-24T05:45:08.832Z,9.418295
2023-12-24T05:46:08.809Z,9.418304
2023-12-24T05:47:08.833Z,9.418390
2023-12-24T05:48:08.940Z,9.418367
2023-12-24T05:49:08.814Z,9.418353
2023-12-24T05:50:08.828Z,9.418349
2023-12-24T05:51:08.793Z,9.418414
2023-12-24T05:52:08.780Z,9.418347
2023-12-24T05:53:08.788Z,9.418300
2023-12-24T05:54:08.752Z,9.418322
2023-12-24T05:55:08.764Z,9.418233
2023-12-24T05:56:08.757Z,9.418249
2023-12-24T05:57:08.749Z,9.418272
2023-12-24T05:58:08.734Z,9.418204
2023-12-24T05:59:08.751Z,9.418320
2023-12-24T06:00:08.709Z,9.418332
2023-12-24T06:01:08.755Z,9.418341
2023-12-24T06:02:08.753Z,9.418346
2023-12-24T06:03:08.751Z,9.418328
2023-12-24T06:04:08.691Z,9.418244
2023-12-24T06:05:08.785Z,9.418259
2023-12-24T06:06:08.809Z,9.418304
2023-12-24T06:07:08.686Z,9.418330
2023-12-24T06:08:08.779Z,9.418188
2023-12-24T06:09:08.697Z,9.418379
2023-12-24T06:10:08.655Z,9.418294
2023-12-24T06:11:08.681Z,9.418134
2023-12-24T06:12:08.651Z,9.418126
2023-12-24T06:13:08.653Z,9.418199
2023-12-24T06:14:08.724Z,9.418226
2023-12-24T06:15:08.615Z,9.418207
2023-12-24T06:16:08.604Z,9.418136
2023-12-24T06:17:08.685Z,9.418064
2023-12-24T06:18:08.731Z,9.418161
2023-12-24T06:19:08.808Z,9.418188
2023-12-24T06:20:08.706Z,9.418125
2023-12-24T06:21:08.594Z,9.418174
2023-12-24T06:22:08.603Z,9.418093
2023-12-24T06:23:08.700Z,9.418032
2023-12-24T06:24:08.550Z,9.418009
2023-12-24T06:25:08.540Z,9.418071
2023-12-24T06:26:08.665Z,9.417955
2023-12-24T06:27:08.530Z,9.418113
2023-12-24T06:28:08.526Z,9.418067
2023-12-24T06:29:08.562Z,9.418075
2023-12-24T06:30:08.539Z,9.418083
2023-12-24T06:31:08.497Z,9.418080
2023-12-24T06:32:08.557Z,9.418031
2023-12-24T06:33:08.542Z,9.418135
2023-12-24T06:34:08.520Z,9.418050
2023-12-24T06:35:08.526Z,9.418131
2023-12-24T06:36:08.476Z,9.418134
2023-12-24T06:37:08.662Z,9.418103
2023-12-24T06:38:08.564Z,9.418191
2023-12-24T06:39:08.458Z,9.418182
2023-12-24T06:40:08.461Z,9.418282
2023-12-24T06:41:08.495Z,9.418177
2023-12-24T06:42:08.431Z,9.418255
2023-12-24T06:43:08.480Z,9.418110
2023-12-24T06:44:08.452Z,9.418215
2023-12-24T06:45:08.432Z,9.418187
2023-12-24T06:46:08.399Z,9.418209
2023-12-24T06:47:08.453Z,9.418116
2023-12-24T06:48:08.528Z,9.418272
2023-12-24T06:49:08.444Z,9.418201
2023-12-24T06:50:08.418Z,9.418103
2023-12-24T06:51:08.394Z,9.418286
2023-12-24T06:52:08.371Z,9.418343
2023-12-24T06:53:08.432Z,9.418114
2023-12-24T06:54:08.353Z,9.418266
2023-12-24T06:55:08.394Z,9.418255
2023-12-24T06:56:08.376Z,9.418116
2023-12-24T06:57:08.332Z,9.418155
2023-12-24T06:58:08.333Z,9.418009
2023-12-24T06:59:08.333Z,9.418114
2023-12-24T07:00:08.667Z,9.418148
2023-12-24T07:01:08.385Z,9.418221
2023-12-24T07:02:08.330Z,9.418178
2023-12-24T07:03:08.355Z,9.418031
2023-12-24T07:04:08.291Z,9.418141
2023-12-24T07:05:08.298Z,9.418131
2023-12-24T07:06:08.350Z,9.418115
2023-12-24T07:07:08.260Z,9.418081
2023-12-24T07:08:08.361Z,9.418084
2023-12-24T07:09:08.305Z,9.418057
2023-12-24T07:10:08.244Z,9.418039
2023-12-24T07:11:08.354Z,9.418000
2023-12-24T07:12:08.220Z,9.418058
2023-12-24T07:13:08.236Z,9.418191
2023-12-24T07:14:08.304Z,9.418137
2023-12-24T07:15:08.192Z,9.418159
2023-12-24T07:16:08.205Z,9.417951
2023-12-24T07:17:08.276Z,9.418106
2023-12-24T07:18:08.276Z,9.418075
2023-12-24T07:19:08.199Z,9.418242
2023-12-24T07:20:08.199Z,9.418056
2023-12-24T07:21:08.167Z,9.418162
2023-12-24T07:22:08.142Z,9.418219
2023-12-24T07:23:08.157Z,9.418147
2023-12-24T07:24:08.158Z,9.418163
2023-12-24T07:25:08.131Z,9.418338
2023-12-24T07:26:08.203Z,9.418286
2023-12-24T07:27:08.125Z,9.418371
2023-12-24T07:28:08.134Z,9.418279
2023-12-24T07:29:08.160Z,9.418329
2023-12-24T07:30:09.138Z,9.418340
2023-12-24T07:31:08.091Z,9.418300
2023-12-24T07:32:08.120Z,9.418279
2023-12-24T07:33:08.613Z,9.418414
2023-12-24T07:34:08.135Z,9.418388
2023-12-24T07:35:08.106Z,9.418364
2023-12-24T07:36:08.053Z,9.418314
2023-12-24T07:37:09.039Z,9.418328
2023-12-24T07:38:08.099Z,9.418372
2023-12-24T07:39:08.030Z,9.418331
2023-12-24T07:40:08.048Z,9.418355
2023-12-24T07:41:08.071Z,9.418238
2023-12-24T07:42:08.019Z,9.418206
2023-12-24T07:43:08.018Z,9.418251
2023-12-24T07:44:08.035Z,9.418295
2023-12-24T07:45:07.991Z,9.418246
2023-12-24T07:46:08.006Z,9.418270
2023-12-24T07:47:08.013Z,9.418236
2023-12-24T07:48:08.054Z,9.418240
2023-12-24T07:49:07.997Z,9.418263
2023-12-24T07:50:08.028Z,9.418282
2023-12-24T07:51:07.959Z,9.418305
2023-12-24T07:52:07.972Z,9.418294
2023-12-24T07:53:07.997Z,9.418344
2023-12-24T07:54:07.925Z,9.418329
2023-12-24T07:55:07.951Z,9.418326
2023-12-24T07:56:07.928Z,9.418294
2023-12-24T07:57:07.903Z,9.418283
2023-12-24T07:58:07.899Z,9.418229
2023-12-24T07:59:07.911Z,9.418228
2023-12-24T08:00:08.003Z,9.418306
2023-12-24T08:01:07.912Z,9.418258
2023-12-24T08:02:07.895Z,9.418207
2023-12-24T08:03:07.870Z,9.418214
2023-12-24T08:04:07.873Z,9.418264
2023-12-24T08:05:07.996Z,9.418295
2023-12-24T08:06:07.995Z,9.418363
2023-12-24T08:07:08.056Z,9.418306
2023-12-24T08:08:07.974Z,9.418300
2023-12-24T08:09:07.825Z,9.418337
2023-12-24T08:10:07.832Z,9.418217
2023-12-24T08:11:14.436Z,9.418226
2023-12-24T08:12:08.794Z,9.418200
2023-12-24T08:13:12.276Z,9.418233
2023-12-24T08:14:09.877Z,9.418281
2023-12-24T08:15:07.854Z,9.418330
2023-12-24T08:16:07.793Z,9.418388
2023-12-24T08:17:07.848Z,9.418328
2023-12-24T08:18:07.997Z,9.418301
2023-12-24T08:19:07.787Z,9.418349
2023-12-24T08:20:07.789Z,9.418308
2023-12-24T08:21:07.749Z,9.418366
2023-12-24T08:22:07.774Z,9.418352
2023-12-24T08:23:07.771Z,9.418390
2023-12-24T08:24:07.707Z,9.418280
2023-12-24T08:25:07.701Z,9.418193
2023-12-24T08:26:07.830Z,9.418245
2023-12-24T08:27:07.732Z,9.418243
2023-12-24T08:28:07.695Z,9.418303
2023-12-24T08:29:07.694Z,9.418220
2023-12-24T08:30:07.756Z,9.418144
2023-12-24T08:31:07.673Z,9.418249
2023-12-24T08:32:07.825Z,9.418221
2023-12-24T08:33:07.823Z,9.418188
2023-12-24T08:34:07.742Z,9.418259
2023-12-24T08:35:08.694Z,9.418303
2023-12-24T08:36:07.646Z,9.418337
2023-12-24T08:37:08.038Z,9.418303
2023-12-24T08:38:07.667Z,9.418272
2023-12-24T08:39:07.642Z,9.418291
2023-12-24T08:40:07.626Z,9.418248
2023-12-24T08:41:07.635Z,9.418278
2023-12-24T08:42:07.603Z,9.418353
2023-12-24T08:43:07.709Z,9.418378
2023-12-24T08:44:07.639Z,9.418483
2023-12-24T08:45:07.571Z,9.418438
2023-12-24T08:46:07.576Z,9.418363
2023-12-24T08:47:07.605Z,9.418376
2023-12-24T08:48:07.650Z,9.418371
2023-12-24T08:49:07.638Z,9.418369
2023-12-24T08:50:07.608Z,9.418479
2023-12-24T08:51:07.535Z,9.418390
2023-12-24T08:52:07.545Z,9.418401
2023-12-24T08:53:07.621Z,9.418439
2023-12-24T08:54:07.523Z,9.418546
2023-12-24T08:55:07.515Z,9.418529
2023-12-24T08:56:07.560Z,9.418767
2023-12-24T08:57:07.502Z,9.418765
2023-12-24T08:58:07.504Z,9.418638
2023-12-24T08:59:07.511Z,9.418666
2023-12-24T09:00:07.475Z,9.418412
2023-12-24T09:01:07.496Z,9.418494
2023-12-24T09:02:07.501Z,9.418385
2023-12-24T09:03:07.587Z,9.418256
2023-12-24T09:04:07.467Z,9.418454
2023-12-24T09:05:07.479Z,9.418405
2023-12-24T09:06:07.568Z,9.418385
2023-12-24T09:07:07.426Z,9.418192
2023-12-24T09:08:07.973Z,9.418418
2023-12-24T09:09:07.412Z,9.418447
2023-12-24T09:10:07.450Z,9.418438
2023-12-24T09:11:07.415Z,9.418461
2023-12-24T09:12:08.392Z,9.418372
2023-12-24T09:13:07.394Z,9.418409
2023-12-24T09:14:07.426Z,9.418509
2023-12-24T09:15:07.355Z,9.418598
2023-12-24T09:16:07.359Z,9.418524
2023-12-24T09:17:07.511Z,9.418488
2023-12-24T09:18:07.488Z,9.418548
2023-12-24T09:19:07.450Z,9.418592
2023-12-24T09:20:07.647Z,9.418375
2023-12-24T09:21:07.333Z,9.418337
2023-12-24T09:22:07.326Z,9.418132
2023-12-24T09:23:07.358Z,9.418171
2023-12-24T09:24:07.378Z,9.418605
2023-12-24T09:25:07.417Z,9.418531
2023-12-24T09:26:07.353Z,9.418401
2023-12-24T09:27:07.296Z,9.418287
2023-12-24T09:28:07.282Z,9.418272
2023-12-24T09:29:07.324Z,9.418323
2023-12-24T09:30:07.324Z,9.418396
2023-12-24T09:31:07.323Z,9.418450
2023-12-24T09:32:07.295Z,9.418540
2023-12-24T09:33:07.375Z,9.418431
2023-12-24T09:34:07.348Z,9.418380
2023-12-24T09:35:07.276Z,9.418329
2023-12-24T09:36:07.252Z,9.418360
2023-12-24T09:37:07.219Z,9.418317
2023-12-24T09:38:07.233Z,9.418357
2023-12-24T09:39:07.211Z,9.418398
2023-12-24T09:40:07.202Z,9.418461
2023-12-24T09:41:07.228Z,9.418371
2023-12-24T09:42:07.176Z,9.418349
2023-12-24T09:43:07.196Z,9.418333
2023-12-24T09:44:07.225Z,9.418367
2023-12-24T09:45:07.186Z,9.418344
2023-12-24T09:46:07.157Z,9.418202
2023-12-24T09:47:07.188Z,9.418259
2023-12-24T09:48:07.449Z,9.418187
2023-12-24T09:49:07.260Z,9.418183
2023-12-24T09:50:07.189Z,9.418238
2023-12-24T09:51:07.127Z,9.418221
2023-12-24T09:52:07.128Z,9.418239
2023-12-24T09:53:07.155Z,9.418280
2023-12-24T09:54:07.113Z,9.418247
2023-12-24T09:55:07.093Z,9.418287
2023-12-24T09:56:07.251Z,9.418233
2023-12-24T09:57:07.093Z,9.418598
2023-12-24T09:58:07.078Z,9.418468
2023-12-24T09:59:08.192Z,9.418414
2023-12-24T10:00:07.054Z,9.418286
2023-12-24T10:01:07.077Z,9.418408
2023-12-24T10:02:07.151Z,9.418323
2023-12-24T10:03:07.069Z,9.418359
2023-12-24T10:04:07.087Z,9.418422
2023-12-24T10:05:07.109Z,9.418591
2023-12-24T10:06:07.096Z,9.418325
2023-12-24T10:07:07.067Z,9.418491
2023-12-24T10:08:07.027Z,9.418369
2023-12-24T10:09:07.092Z,9.418274
2023-12-24T10:10:06.980Z,9.418308
2023-12-24T10:11:07.029Z,9.418435
2023-12-24T10:12:07.010Z,9.418387
2023-12-24T10:13:06.995Z,9.418402
2023-12-24T10:14:06.971Z,9.418384
2023-12-24T10:15:07.003Z,9.418297
2023-12-24T10:16:06.938Z,9.418333
2023-12-24T10:17:07.012Z,9.418272
2023-12-24T10:18:07.143Z,9.418315
2023-12-24T10:19:07.014Z,9.418343
2023-12-24T10:20:07.592Z,9.418383
2023-12-24T10:21:07.477Z,9.418376
2023-12-24T10:22:06.928Z,9.418280
2023-12-24T10:23:07.452Z,9.418293
2023-12-24T10:24:06.890Z,9.418276
2023-12-24T10:25:06.917Z,9.418308
2023-12-24T10:26:06.945Z,9.418267
2023-12-24T10:27:06.894Z,9.418263
2023-12-24T10:28:06.907Z,9.418255
2023-12-24T10:29:15.438Z,9.418266
2023-12-24T10:30:08.984Z,9.418321
2023-12-24T10:31:07.907Z,9.418289
2023-12-24T10:32:06.873Z,9.418226
2023-12-24T10:33:06.914Z,9.418229
2023-12-24T10:34:06.886Z,9.418278
2023-12-24T10:35:06.841Z,9.418273
2023-12-24T10:36:06.795Z,9.418278
2023-12-24T10:37:06.803Z,9.418285
2023-12-24T10:38:06.815Z,9.418272
2023-12-24T10:39:06.824Z,9.418264
2023-12-24T10:40:06.777Z,9.418259
2023-12-24T10:41:06.800Z,9.418259
2023-12-24T10:42:06.761Z,9.418254
2023-12-24T10:43:06.744Z,9.418288
2023-12-24T10:44:06.857Z,9.418281
2023-12-24T10:45:06.758Z,9.418305
2023-12-24T10:46:06.725Z,9.418339
2023-12-24T10:47:06.752Z,9.418280
2023-12-24T10:48:06.882Z,9.418197
2023-12-24T10:49:06.768Z,9.418043
2023-12-24T10:50:07.082Z,9.418074
2023-12-24T10:51:06.719Z,9.418201
2023-12-24T10:52:06.718Z,9.418164
2023-12-24T10:53:06.774Z,9.418265
2023-12-24T10:54:07.531Z,9.418284
2023-12-24T10:55:06.695Z,9.418283
2023-12-24T10:56:06.812Z,9.418180
2023-12-24T10:57:08.266Z,9.418169
2023-12-24T10:58:06.690Z,9.418098
2023-12-24T10:59:06.692Z,9.418170
2023-12-24T11:00:06.731Z,9.418145
2023-12-24T11:01:06.684Z,9.418254
2023-12-24T11:02:06.658Z,9.418190
2023-12-24T11:03:06.626Z,9.418199
2023-12-24T11:04:06.644Z,9.418175
2023-12-24T11:05:06.686Z,9.418180
2023-12-24T11:06:06.654Z,9.418173
2023-12-24T11:07:06.610Z,9.418203
2023-12-24T11:08:06.614Z,9.418298
2023-12-24T11:09:06.614Z,9.418316
2023-12-24T11:10:06.609Z,9.418299
2023-12-24T11:11:06.630Z,9.418264
2023-12-24T11:12:06.566Z,9.418297
2023-12-24T11:13:11.894Z,9.418289
2023-12-24T11:14:07.593Z,9.418300
2023-12-24T11:15:09.544Z,9.418303
2023-12-24T11:16:06.562Z,9.418344
2023-12-24T11:17:06.585Z,9.418292
2023-12-24T11:18:06.694Z,9.418333
2023-12-24T11:19:06.576Z,9.418303
2023-12-24T11:20:06.540Z,9.418283
2023-12-24T11:21:06.540Z,9.418301
2023-12-24T11:22:06.508Z,9.418291
2023-12-24T11:23:06.704Z,9.418294
2023-12-24T11:24:06.505Z,9.418288
2023-12-24T11:25:06.485Z,9.418262
2023-12-24T11:26:06.510Z,9.418253
2023-12-24T11:27:06.482Z,9.418251
2023-12-24T11:28:06.502Z,9.418256
2023-12-24T11:29:06.518Z,9.418271
2023-12-24T11:30:06.529Z,9.418271
2023-12-24T11:31:06.444Z,9.418314
2023-12-24T11:32:06.474Z,9.418347
2023-12-24T11:33:06.543Z,9.418333
2023-12-24T11:34:06.495Z,9.418353
2023-12-24T11:35:06.437Z,9.418291
2023-12-24T11:36:06.393Z,9.418278
2023-12-24T11:37:06.413Z,9.418323
2023-12-24T11:38:06.397Z,9.418340
2023-12-24T11:39:06.637Z,9.418311
2023-12-24T11:40:06.363Z,9.418295
2023-12-24T11:41:06.475Z,9.418271
2023-12-24T11:42:06.413Z,9.418266
2023-12-24T11:43:06.633Z,9.418351
2023-12-24T11:44:06.412Z,9.418360
2023-12-24T11:45:06.346Z,9.418329